sensor_id;sensor_type;location;lat;lon;timestamp;temperature;humidity
10678;DHT22;5387;48.722;9.110;2023-07-02T00:01:49;15.30;99.90
10678;DHT22;5387;48.722;9.110;2023-07-02T00:04:16;15.40;99.90
10678;DHT22;5387;48.722;9.110;2023-07-02T00:06:45;15.30;99.90
10678;DHT22;5387;48.722;9.110;2023-07-02T00:09:12;15.40;99.90
10678;DHT22;5387;48.722;9.110;2023-07-02T00:11:40;15.20;99.90
10678;DHT22;5387;48.722;9.110;2023-07-02T00:14:07;15.20;99.90
10678;DHT22;5387;48.722;9.110;2023-07-02T00:16:35;15.00;99.90
10678;DHT22;5387;48.722;9.110;2023-07-02T00:19:03;15.10;99.90
10678;DHT22;5387;48.722;9.110;2023-07-02T00:21:31;14.90;99.90
10678;DHT22;5387;48.722;9.110;2023-07-02T00:23:59;15.00;99.90
10678;DHT22;5387;48.722;9.110;2023-07-02T00:26:26;15.00;99.90
10678;DHT22;5387;48.722;9.110;2023-07-02T00:28:54;15.10;99.90
10678;DHT22;5387;48.722;9.110;2023-07-02T00:31:21;15.20;99.90
10678;DHT22;5387;48.722;9.110;2023-07-02T00:33:48;15.10;99.90
10678;DHT22;5387;48.722;9.110;2023-07-02T00:36:16;15.10;99.90
10678;DHT22;5387;48.722;9.110;2023-07-02T00:38:45;15.10;99.90
10678;DHT22;5387;48.722;9.110;2023-07-02T00:41:12;15.20;99.90
10678;DHT22;5387;48.722;9.110;2023-07-02T00:43:39;15.20;99.90
10678;DHT22;5387;48.722;9.110;2023-07-02T00:46:10;15.30;99.90
10678;DHT22;5387;48.722;9.110;2023-07-02T00:48:38;15.30;99.90
10678;DHT22;5387;48.722;9.110;2023-07-02T00:51:05;15.30;99.90
10678;DHT22;5387;48.722;9.110;2023-07-02T00:53:33;15.20;99.90
10678;DHT22;5387;48.722;9.110;2023-07-02T00:56:00;15.20;99.90
10678;DHT22;5387;48.722;9.110;2023-07-02T00:58:27;15.10;99.90
10678;DHT22;5387;48.722;9.110;2023-07-02T01:00:54;15.20;99.90
10678;DHT22;5387;48.722;9.110;2023-07-02T01:03:22;15.20;99.90
10678;DHT22;5387;48.722;9.110;2023-07-02T01:05:48;15.20;99.90
10678;DHT22;5387;48.722;9.110;2023-07-02T01:08:15;15.30;99.90
10678;DHT22;5387;48.722;9.110;2023-07-02T01:10:43;15.20;99.90
10678;DHT22;5387;48.722;9.110;2023-07-02T01:13:14;15.30;99.90
10678;DHT22;5387;48.722;9.110;2023-07-02T01:15:42;15.30;99.90
10678;DHT22;5387;48.722;9.110;2023-07-02T01:18:11;15.30;99.90
10678;DHT22;5387;48.722;9.110;2023-07-02T01:20:40;15.30;99.90
10678;DHT22;5387;48.722;9.110;2023-07-02T01:23:07;15.20;99.90
10678;DHT22;5387;48.722;9.110;2023-07-02T01:25:35;15.10;99.90
10678;DHT22;5387;48.722;9.110;2023-07-02T01:28:02;15.10;99.90
10678;DHT22;5387;48.722;9.110;2023-07-02T01:30:29;15.10;99.90
10678;DHT22;5387;48.722;9.110;2023-07-02T01:32:56;15.00;99.90
10678;DHT22;5387;48.722;9.110;2023-07-02T01:35:23;14.90;99.90
10678;DHT22;5387;48.722;9.110;2023-07-02T01:37:51;15.00;99.90
10678;DHT22;5387;48.722;9.110;2023-07-02T01:40:19;15.00;99.90
10678;DHT22;5387;48.722;9.110;2023-07-02T01:42:45;14.90;99.90
10678;DHT22;5387;48.722;9.110;2023-07-02T01:45:12;15.00;99.90
10678;DHT22;5387;48.722;9.110;2023-07-02T01:47:39;14.80;99.90
10678;DHT22;5387;48.722;9.110;2023-07-02T01:50:06;14.90;99.90
10678;DHT22;5387;48.722;9.110;2023-07-02T01:52:33;14.80;99.90
10678;DHT22;5387;48.722;9.110;2023-07-02T01:55:02;14.80;99.90
10678;DHT22;5387;48.722;9.110;2023-07-02T01:57:29;14.80;99.90
10678;DHT22;5387;48.722;9.110;2023-07-02T01:59:56;14.90;99.90
10678;DHT22;5387;48.722;9.110;2023-07-02T02:02:23;14.80;99.90
10678;DHT22;5387;48.722;9.110;2023-07-02T02:04:50;15.00;99.90
10678;DHT22;5387;48.722;9.110;2023-07-02T02:07:17;15.00;99.90
10678;DHT22;5387;48.722;9.110;2023-07-02T02:09:44;15.00;99.90
10678;DHT22;5387;48.722;9.110;2023-07-02T02:12:12;15.20;99.90
10678;DHT22;5387;48.722;9.110;2023-07-02T02:14:40;15.10;99.90
10678;DHT22;5387;48.722;9.110;2023-07-02T02:17:08;15.20;99.90
10678;DHT22;5387;48.722;9.110;2023-07-02T02:19:35;15.20;99.90
10678;DHT22;5387;48.722;9.110;2023-07-02T02:22:01;15.30;99.90
10678;DHT22;5387;48.722;9.110;2023-07-02T02:24:28;15.30;99.90
10678;DHT22;5387;48.722;9.110;2023-07-02T02:26:55;15.50;99.90
10678;DHT22;5387;48.722;9.110;2023-07-02T02:29:23;15.40;99.90
10678;DHT22;5387;48.722;9.110;2023-07-02T02:31:50;15.40;99.90
10678;DHT22;5387;48.722;9.110;2023-07-02T02:34:17;15.40;99.90
10678;DHT22;5387;48.722;9.110;2023-07-02T02:36:43;15.40;99.90
10678;DHT22;5387;48.722;9.110;2023-07-02T02:39:10;15.40;99.90
10678;DHT22;5387;48.722;9.110;2023-07-02T02:41:37;15.40;99.90
10678;DHT22;5387;48.722;9.110;2023-07-02T02:44:04;15.40;99.90
10678;DHT22;5387;48.722;9.110;2023-07-02T02:46:32;15.50;99.90
10678;DHT22;5387;48.722;9.110;2023-07-02T02:48:59;15.50;99.90
10678;DHT22;5387;48.722;9.110;2023-07-02T02:51:25;15.50;99.90
10678;DHT22;5387;48.722;9.110;2023-07-02T02:53:52;15.50;99.90
10678;DHT22;5387;48.722;9.110;2023-07-02T02:56:19;15.50;99.90
10678;DHT22;5387;48.722;9.110;2023-07-02T02:58:46;15.70;99.90
10678;DHT22;5387;48.722;9.110;2023-07-02T03:01:12;15.60;99.90
10678;DHT22;5387;48.722;9.110;2023-07-02T03:03:42;15.60;99.90
10678;DHT22;5387;48.722;9.110;2023-07-02T03:06:11;15.60;99.90
10678;DHT22;5387;48.722;9.110;2023-07-02T03:08:39;15.50;99.90
10678;DHT22;5387;48.722;9.110;2023-07-02T03:11:06;15.40;99.90
10678;DHT22;5387;48.722;9.110;2023-07-02T03:13:33;15.40;99.90
10678;DHT22;5387;48.722;9.110;2023-07-02T03:16:00;15.30;99.90
10678;DHT22;5387;48.722;9.110;2023-07-02T03:18:26;15.20;99.90
10678;DHT22;5387;48.722;9.110;2023-07-02T03:20:55;15.10;99.90
10678;DHT22;5387;48.722;9.110;2023-07-02T03:23:21;14.90;99.90
10678;DHT22;5387;48.722;9.110;2023-07-02T03:25:48;14.70;99.90
10678;DHT22;5387;48.722;9.110;2023-07-02T03:28:15;14.60;99.90
10678;DHT22;5387;48.722;9.110;2023-07-02T03:30:42;14.50;99.90
10678;DHT22;5387;48.722;9.110;2023-07-02T03:33:09;14.50;99.90
10678;DHT22;5387;48.722;9.110;2023-07-02T03:35:36;14.40;99.90
10678;DHT22;5387;48.722;9.110;2023-07-02T03:38:04;14.30;99.90
10678;DHT22;5387;48.722;9.110;2023-07-02T03:40:31;14.40;99.90
10678;DHT22;5387;48.722;9.110;2023-07-02T03:42:58;14.30;99.90
10678;DHT22;5387;48.722;9.110;2023-07-02T03:45:25;14.30;99.90
10678;DHT22;5387;48.722;9.110;2023-07-02T03:47:51;14.40;99.90
10678;DHT22;5387;48.722;9.110;2023-07-02T03:50:18;14.20;99.90
10678;DHT22;5387;48.722;9.110;2023-07-02T03:52:45;14.10;99.90
10678;DHT22;5387;48.722;9.110;2023-07-02T03:55:14;14.10;99.90
10678;DHT22;5387;48.722;9.110;2023-07-02T03:57:40;14.00;99.90
10678;DHT22;5387;48.722;9.110;2023-07-02T04:00:08;14.00;99.90
10678;DHT22;5387;48.722;9.110;2023-07-02T04:02:36;13.90;99.90
10678;DHT22;5387;48.722;9.110;2023-07-02T04:05:04;13.90;99.90
10678;DHT22;5387;48.722;9.110;2023-07-02T04:07:31;13.90;99.90
10678;DHT22;5387;48.722;9.110;2023-07-02T04:09:58;13.70;99.90
10678;DHT22;5387;48.722;9.110;2023-07-02T04:12:26;13.90;99.90
10678;DHT22;5387;48.722;9.110;2023-07-02T04:14:53;13.70;99.90
10678;DHT22;5387;48.722;9.110;2023-07-02T04:17:20;13.90;99.90
10678;DHT22;5387;48.722;9.110;2023-07-02T04:19:46;13.90;99.90
10678;DHT22;5387;48.722;9.110;2023-07-02T04:22:14;13.90;99.90
10678;DHT22;5387;48.722;9.110;2023-07-02T04:24:41;13.90;99.90
10678;DHT22;5387;48.722;9.110;2023-07-02T04:27:07;13.90;99.90
10678;DHT22;5387;48.722;9.110;2023-07-02T04:29:36;13.90;99.90
10678;DHT22;5387;48.722;9.110;2023-07-02T04:32:03;14.00;99.90
10678;DHT22;5387;48.722;9.110;2023-07-02T04:34:29;14.00;99.90
10678;DHT22;5387;48.722;9.110;2023-07-02T04:36:56;14.00;99.90
10678;DHT22;5387;48.722;9.110;2023-07-02T04:39:23;14.20;99.90
10678;DHT22;5387;48.722;9.110;2023-07-02T04:41:50;14.00;99.90
10678;DHT22;5387;48.722;9.110;2023-07-02T04:44:18;14.10;99.90
10678;DHT22;5387;48.722;9.110;2023-07-02T04:46:47;14.00;99.90
10678;DHT22;5387;48.722;9.110;2023-07-02T04:49:15;14.00;99.90
10678;DHT22;5387;48.722;9.110;2023-07-02T04:51:41;14.10;99.90
10678;DHT22;5387;48.722;9.110;2023-07-02T04:54:08;14.30;99.90
10678;DHT22;5387;48.722;9.110;2023-07-02T04:56:35;14.50;99.90
10678;DHT22;5387;48.722;9.110;2023-07-02T04:59:02;14.30;99.90
10678;DHT22;5387;48.722;9.110;2023-07-02T05:01:29;14.70;99.90
10678;DHT22;5387;48.722;9.110;2023-07-02T05:03:57;14.90;99.90
10678;DHT22;5387;48.722;9.110;2023-07-02T05:06:24;14.80;99.90
10678;DHT22;5387;48.722;9.110;2023-07-02T05:08:51;15.20;99.90
10678;DHT22;5387;48.722;9.110;2023-07-02T05:11:18;15.20;99.90
10678;DHT22;5387;48.722;9.110;2023-07-02T05:13:45;15.20;99.90
10678;DHT22;5387;48.722;9.110;2023-07-02T05:16:11;15.30;99.90
10678;DHT22;5387;48.722;9.110;2023-07-02T05:18:38;15.40;99.90
10678;DHT22;5387;48.722;9.110;2023-07-02T05:21:07;15.40;99.90
10678;DHT22;5387;48.722;9.110;2023-07-02T05:23:33;15.50;99.90
10678;DHT22;5387;48.722;9.110;2023-07-02T05:26:01;15.50;99.90
10678;DHT22;5387;48.722;9.110;2023-07-02T05:28:28;15.50;99.90
10678;DHT22;5387;48.722;9.110;2023-07-02T05:30:54;15.60;99.90
10678;DHT22;5387;48.722;9.110;2023-07-02T05:33:21;15.40;99.90
10678;DHT22;5387;48.722;9.110;2023-07-02T05:35:48;15.40;99.90
10678;DHT22;5387;48.722;9.110;2023-07-02T05:38:17;15.40;99.90
10678;DHT22;5387;48.722;9.110;2023-07-02T05:40:44;15.50;99.90
10678;DHT22;5387;48.722;9.110;2023-07-02T05:43:11;15.30;99.90
10678;DHT22;5387;48.722;9.110;2023-07-02T05:45:38;15.40;99.90
10678;DHT22;5387;48.722;9.110;2023-07-02T05:48:05;15.60;99.90
10678;DHT22;5387;48.722;9.110;2023-07-02T05:50:32;15.60;99.90
10678;DHT22;5387;48.722;9.110;2023-07-02T05:52:58;15.80;99.90
10678;DHT22;5387;48.722;9.110;2023-07-02T05:55:27;15.80;99.90
10678;DHT22;5387;48.722;9.110;2023-07-02T05:57:53;15.90;99.90
10678;DHT22;5387;48.722;9.110;2023-07-02T06:00:22;15.80;99.90
10678;DHT22;5387;48.722;9.110;2023-07-02T06:02:49;15.80;99.90
10678;DHT22;5387;48.722;9.110;2023-07-02T06:05:16;15.70;99.90
10678;DHT22;5387;48.722;9.110;2023-07-02T06:07:43;15.90;99.90
10678;DHT22;5387;48.722;9.110;2023-07-02T06:10:10;15.90;99.90
10678;DHT22;5387;48.722;9.110;2023-07-02T06:12:38;16.10;99.90
10678;DHT22;5387;48.722;9.110;2023-07-02T06:15:06;16.10;99.90
10678;DHT22;5387;48.722;9.110;2023-07-02T06:17:32;16.20;99.90
10678;DHT22;5387;48.722;9.110;2023-07-02T06:19:59;16.20;99.90
10678;DHT22;5387;48.722;9.110;2023-07-02T06:22:26;16.40;99.90
10678;DHT22;5387;48.722;9.110;2023-07-02T06:24:53;16.40;99.90
10678;DHT22;5387;48.722;9.110;2023-07-02T06:27:20;16.60;99.90
10678;DHT22;5387;48.722;9.110;2023-07-02T06:29:48;16.90;99.90
10678;DHT22;5387;48.722;9.110;2023-07-02T06:32:15;17.10;99.90
10678;DHT22;5387;48.722;9.110;2023-07-02T06:34:42;17.30;99.90
10678;DHT22;5387;48.722;9.110;2023-07-02T06:37:08;17.30;99.90
10678;DHT22;5387;48.722;9.110;2023-07-02T06:39:35;17.20;99.90
10678;DHT22;5387;48.722;9.110;2023-07-02T06:42:02;17.30;99.90
10678;DHT22;5387;48.722;9.110;2023-07-02T06:44:29;17.30;99.90
10678;DHT22;5387;48.722;9.110;2023-07-02T06:46:57;17.10;99.90
10678;DHT22;5387;48.722;9.110;2023-07-02T06:49:24;16.90;99.90
10678;DHT22;5387;48.722;9.110;2023-07-02T06:51:51;17.10;99.90
10678;DHT22;5387;48.722;9.110;2023-07-02T06:54:17;17.20;99.90
10678;DHT22;5387;48.722;9.110;2023-07-02T06:56:44;17.40;99.90
10678;DHT22;5387;48.722;9.110;2023-07-02T06:59:11;17.60;99.90
10678;DHT22;5387;48.722;9.110;2023-07-02T07:01:38;17.60;99.90
10678;DHT22;5387;48.722;9.110;2023-07-02T07:04:06;17.40;99.90
10678;DHT22;5387;48.722;9.110;2023-07-02T07:06:32;17.40;99.90
10678;DHT22;5387;48.722;9.110;2023-07-02T07:08:59;17.60;99.90
10678;DHT22;5387;48.722;9.110;2023-07-02T07:11:26;17.70;99.90
10678;DHT22;5387;48.722;9.110;2023-07-02T07:13:53;17.90;99.90
10678;DHT22;5387;48.722;9.110;2023-07-02T07:16:20;17.90;99.90
10678;DHT22;5387;48.722;9.110;2023-07-02T07:18:48;18.00;99.90
10678;DHT22;5387;48.722;9.110;2023-07-02T07:21:16;18.20;99.90
10678;DHT22;5387;48.722;9.110;2023-07-02T07:23:43;18.20;99.90
10678;DHT22;5387;48.722;9.110;2023-07-02T07:26:10;18.30;99.90
10678;DHT22;5387;48.722;9.110;2023-07-02T07:28:36;18.60;99.90
10678;DHT22;5387;48.722;9.110;2023-07-02T07:31:03;18.30;99.90
10678;DHT22;5387;48.722;9.110;2023-07-02T07:33:30;18.20;99.90
10678;DHT22;5387;48.722;9.110;2023-07-02T07:35:57;18.40;99.90
10678;DHT22;5387;48.722;9.110;2023-07-02T07:38:25;18.30;99.90
10678;DHT22;5387;48.722;9.110;2023-07-02T07:40:52;18.10;99.90
10678;DHT22;5387;48.722;9.110;2023-07-02T07:43:18;18.00;99.90
10678;DHT22;5387;48.722;9.110;2023-07-02T07:45:45;18.50;99.90
10678;DHT22;5387;48.722;9.110;2023-07-02T07:48:12;18.90;99.90
10678;DHT22;5387;48.722;9.110;2023-07-02T07:50:39;18.90;99.90
10678;DHT22;5387;48.722;9.110;2023-07-02T07:53:05;18.90;99.90
10678;DHT22;5387;48.722;9.110;2023-07-02T07:55:34;18.80;99.90
10678;DHT22;5387;48.722;9.110;2023-07-02T07:58:00;18.60;99.90
10678;DHT22;5387;48.722;9.110;2023-07-02T08:00:27;18.70;99.90
10678;DHT22;5387;48.722;9.110;2023-07-02T08:02:54;18.60;99.90
10678;DHT22;5387;48.722;9.110;2023-07-02T08:05:21;18.70;99.90
10678;DHT22;5387;48.722;9.110;2023-07-02T08:07:48;19.00;99.90
10678;DHT22;5387;48.722;9.110;2023-07-02T08:10:15;19.40;99.90
10678;DHT22;5387;48.722;9.110;2023-07-02T08:12:43;19.50;99.90
10678;DHT22;5387;48.722;9.110;2023-07-02T08:15:11;19.50;99.90
10678;DHT22;5387;48.722;9.110;2023-07-02T08:17:38;19.70;99.90
10678;DHT22;5387;48.722;9.110;2023-07-02T08:20:05;19.50;99.90
10678;DHT22;5387;48.722;9.110;2023-07-02T08:22:35;19.40;99.90
10678;DHT22;5387;48.722;9.110;2023-07-02T08:25:04;19.40;99.90
10678;DHT22;5387;48.722;9.110;2023-07-02T08:27:35;19.60;99.90
10678;DHT22;5387;48.722;9.110;2023-07-02T08:30:04;19.60;99.90
10678;DHT22;5387;48.722;9.110;2023-07-02T08:32:31;19.70;99.90
10678;DHT22;5387;48.722;9.110;2023-07-02T08:34:58;19.60;99.90
10678;DHT22;5387;48.722;9.110;2023-07-02T08:37:24;19.50;99.90
10678;DHT22;5387;48.722;9.110;2023-07-02T08:39:51;19.60;99.90
10678;DHT22;5387;48.722;9.110;2023-07-02T08:42:18;19.90;99.90
10678;DHT22;5387;48.722;9.110;2023-07-02T08:44:46;20.00;99.90
10678;DHT22;5387;48.722;9.110;2023-07-02T08:47:15;19.40;99.90
10678;DHT22;5387;48.722;9.110;2023-07-02T08:49:42;19.20;99.90
10678;DHT22;5387;48.722;9.110;2023-07-02T08:52:08;18.90;99.90
10678;DHT22;5387;48.722;9.110;2023-07-02T08:54:35;18.90;99.90
10678;DHT22;5387;48.722;9.110;2023-07-02T08:57:03;19.00;99.90
10678;DHT22;5387;48.722;9.110;2023-07-02T08:59:30;18.90;99.90
10678;DHT22;5387;48.722;9.110;2023-07-02T09:01:57;19.30;99.90
10678;DHT22;5387;48.722;9.110;2023-07-02T09:04:26;19.50;99.90
10678;DHT22;5387;48.722;9.110;2023-07-02T09:07:03;19.60;99.90
10678;DHT22;5387;48.722;9.110;2023-07-02T09:09:30;19.40;99.90
10678;DHT22;5387;48.722;9.110;2023-07-02T09:11:57;19.30;99.90
10678;DHT22;5387;48.722;9.110;2023-07-02T09:14:25;19.40;99.90
10678;DHT22;5387;48.722;9.110;2023-07-02T09:17:05;19.60;99.90
10678;DHT22;5387;48.722;9.110;2023-07-02T09:19:36;19.90;99.90
10678;DHT22;5387;48.722;9.110;2023-07-02T09:22:03;20.00;99.90
10678;DHT22;5387;48.722;9.110;2023-07-02T09:24:31;20.00;99.90
10678;DHT22;5387;48.722;9.110;2023-07-02T09:27:00;20.10;99.90
10678;DHT22;5387;48.722;9.110;2023-07-02T09:29:28;20.30;99.90
10678;DHT22;5387;48.722;9.110;2023-07-02T09:31:55;20.50;99.90
10678;DHT22;5387;48.722;9.110;2023-07-02T09:34:27;20.50;99.90
10678;DHT22;5387;48.722;9.110;2023-07-02T09:36:56;20.60;99.90
10678;DHT22;5387;48.722;9.110;2023-07-02T09:39:26;20.90;99.90
10678;DHT22;5387;48.722;9.110;2023-07-02T09:41:55;21.20;99.90
10678;DHT22;5387;48.722;9.110;2023-07-02T09:44:22;20.90;99.90
10678;DHT22;5387;48.722;9.110;2023-07-02T09:46:55;20.40;99.90
10678;DHT22;5387;48.722;9.110;2023-07-02T09:49:25;20.30;99.90
10678;DHT22;5387;48.722;9.110;2023-07-02T09:51:52;20.20;99.90
10678;DHT22;5387;48.722;9.110;2023-07-02T09:54:21;20.40;99.90
10678;DHT22;5387;48.722;9.110;2023-07-02T09:56:48;20.50;99.90
10678;DHT22;5387;48.722;9.110;2023-07-02T09:59:14;20.70;99.90
10678;DHT22;5387;48.722;9.110;2023-07-02T10:01:41;20.60;99.90
10678;DHT22;5387;48.722;9.110;2023-07-02T10:04:12;20.90;99.90
10678;DHT22;5387;48.722;9.110;2023-07-02T10:06:46;20.80;99.90
10678;DHT22;5387;48.722;9.110;2023-07-02T10:09:13;21.20;99.90
10678;DHT22;5387;48.722;9.110;2023-07-02T10:11:42;21.50;99.90
10678;DHT22;5387;48.722;9.110;2023-07-02T10:14:09;21.50;99.90
10678;DHT22;5387;48.722;9.110;2023-07-02T10:16:48;21.60;99.90
10678;DHT22;5387;48.722;9.110;2023-07-02T10:19:15;21.80;99.90
10678;DHT22;5387;48.722;9.110;2023-07-02T10:21:42;21.60;99.90
10678;DHT22;5387;48.722;9.110;2023-07-02T10:24:12;21.60;99.90
10678;DHT22;5387;48.722;9.110;2023-07-02T10:26:52;21.60;99.90
10678;DHT22;5387;48.722;9.110;2023-07-02T10:29:20;21.40;99.90
10678;DHT22;5387;48.722;9.110;2023-07-02T10:31:50;20.90;99.90
10678;DHT22;5387;48.722;9.110;2023-07-02T10:34:28;20.90;99.90
10678;DHT22;5387;48.722;9.110;2023-07-02T10:36:55;21.70;99.90
10678;DHT22;5387;48.722;9.110;2023-07-02T10:39:23;22.00;99.90
10678;DHT22;5387;48.722;9.110;2023-07-02T10:41:51;22.10;99.90
10678;DHT22;5387;48.722;9.110;2023-07-02T10:44:18;22.00;99.90
10678;DHT22;5387;48.722;9.110;2023-07-02T10:46:45;22.30;99.90
10678;DHT22;5387;48.722;9.110;2023-07-02T10:49:12;22.50;99.90
10678;DHT22;5387;48.722;9.110;2023-07-02T10:51:39;22.30;99.90
10678;DHT22;5387;48.722;9.110;2023-07-02T10:54:06;22.20;99.90
10678;DHT22;5387;48.722;9.110;2023-07-02T10:56:33;22.20;99.90
10678;DHT22;5387;48.722;9.110;2023-07-02T10:59:01;22.20;99.90
10678;DHT22;5387;48.722;9.110;2023-07-02T11:01:29;22.10;99.90
10678;DHT22;5387;48.722;9.110;2023-07-02T11:03:57;22.00;99.90
10678;DHT22;5387;48.722;9.110;2023-07-02T11:06:25;21.80;99.90
10678;DHT22;5387;48.722;9.110;2023-07-02T11:08:52;21.70;99.90
10678;DHT22;5387;48.722;9.110;2023-07-02T11:11:20;21.60;99.90
10678;DHT22;5387;48.722;9.110;2023-07-02T11:13:48;21.70;99.90
10678;DHT22;5387;48.722;9.110;2023-07-02T11:16:22;22.10;99.90
10678;DHT22;5387;48.722;9.110;2023-07-02T11:18:52;22.60;99.90
10678;DHT22;5387;48.722;9.110;2023-07-02T11:21:19;22.80;99.90
10678;DHT22;5387;48.722;9.110;2023-07-02T11:23:46;22.90;99.90
10678;DHT22;5387;48.722;9.110;2023-07-02T11:26:13;22.50;99.90
10678;DHT22;5387;48.722;9.110;2023-07-02T11:28:48;22.40;99.90
10678;DHT22;5387;48.722;9.110;2023-07-02T11:31:26;22.20;99.90
10678;DHT22;5387;48.722;9.110;2023-07-02T11:33:53;22.10;99.90
10678;DHT22;5387;48.722;9.110;2023-07-02T11:36:21;22.60;99.90
10678;DHT22;5387;48.722;9.110;2023-07-02T11:38:49;22.80;99.80
10678;DHT22;5387;48.722;9.110;2023-07-02T11:41:16;23.10;99.10
10678;DHT22;5387;48.722;9.110;2023-07-02T11:43:42;23.60;99.20
10678;DHT22;5387;48.722;9.110;2023-07-02T11:46:09;23.90;98.60
10678;DHT22;5387;48.722;9.110;2023-07-02T11:48:37;24.80;98.10
10678;DHT22;5387;48.722;9.110;2023-07-02T11:51:04;25.50;95.80
10678;DHT22;5387;48.722;9.110;2023-07-02T11:53:31;25.90;94.60
10678;DHT22;5387;48.722;9.110;2023-07-02T11:55:58;26.50;93.60
10678;DHT22;5387;48.722;9.110;2023-07-02T11:58:25;27.70;93.20
10678;DHT22;5387;48.722;9.110;2023-07-02T12:00:51;28.30;91.60
10678;DHT22;5387;48.722;9.110;2023-07-02T12:03:18;27.30;90.00
10678;DHT22;5387;48.722;9.110;2023-07-02T12:05:46;25.90;90.30
10678;DHT22;5387;48.722;9.110;2023-07-02T12:08:13;25.10;90.80
10678;DHT22;5387;48.722;9.110;2023-07-02T12:10:40;24.70;91.80
10678;DHT22;5387;48.722;9.110;2023-07-02T12:13:07;24.20;91.30
10678;DHT22;5387;48.722;9.110;2023-07-02T12:15:34;24.60;91.80
10678;DHT22;5387;48.722;9.110;2023-07-02T12:18:00;24.50;91.90
10678;DHT22;5387;48.722;9.110;2023-07-02T12:20:27;24.90;90.70
10678;DHT22;5387;48.722;9.110;2023-07-02T12:22:56;25.60;89.90
10678;DHT22;5387;48.722;9.110;2023-07-02T12:25:23;25.10;89.10
10678;DHT22;5387;48.722;9.110;2023-07-02T12:27:49;24.60;89.90
10678;DHT22;5387;48.722;9.110;2023-07-02T12:30:16;25.10;90.00
10678;DHT22;5387;48.722;9.110;2023-07-02T12:32:44;25.40;88.30
10678;DHT22;5387;48.722;9.110;2023-07-02T12:35:11;25.40;88.50
10678;DHT22;5387;48.722;9.110;2023-07-02T12:37:43;26.30;85.70
10678;DHT22;5387;48.722;9.110;2023-07-02T12:40:12;27.10;85.60
10678;DHT22;5387;48.722;9.110;2023-07-02T12:42:40;26.80;84.30
10678;DHT22;5387;48.722;9.110;2023-07-02T12:45:08;26.90;85.90
10678;DHT22;5387;48.722;9.110;2023-07-02T12:47:36;26.40;84.20
10678;DHT22;5387;48.722;9.110;2023-07-02T12:50:03;26.50;86.60
10678;DHT22;5387;48.722;9.110;2023-07-02T12:52:30;26.80;84.20
10678;DHT22;5387;48.722;9.110;2023-07-02T12:54:56;25.80;85.80
10678;DHT22;5387;48.722;9.110;2023-07-02T12:57:24;25.40;85.00
10678;DHT22;5387;48.722;9.110;2023-07-02T12:59:52;26.60;86.10
10678;DHT22;5387;48.722;9.110;2023-07-02T13:02:20;27.10;81.00
10678;DHT22;5387;48.722;9.110;2023-07-02T13:04:47;27.40;81.80
10678;DHT22;5387;48.722;9.110;2023-07-02T13:07:13;27.10;82.00
10678;DHT22;5387;48.722;9.110;2023-07-02T13:09:40;26.30;82.50
10678;DHT22;5387;48.722;9.110;2023-07-02T13:12:08;25.00;82.00
10678;DHT22;5387;48.722;9.110;2023-07-02T13:14:36;25.20;83.20
10678;DHT22;5387;48.722;9.110;2023-07-02T13:17:03;25.20;82.20
10678;DHT22;5387;48.722;9.110;2023-07-02T13:19:31;25.40;82.90
10678;DHT22;5387;48.722;9.110;2023-07-02T13:21:58;26.30;82.20
10678;DHT22;5387;48.722;9.110;2023-07-02T13:24:24;26.80;79.20
10678;DHT22;5387;48.722;9.110;2023-07-02T13:26:52;27.20;76.10
10678;DHT22;5387;48.722;9.110;2023-07-02T13:29:19;26.60;75.40
10678;DHT22;5387;48.722;9.110;2023-07-02T13:31:47;26.80;76.60
10678;DHT22;5387;48.722;9.110;2023-07-02T13:34:13;26.60;75.90
10678;DHT22;5387;48.722;9.110;2023-07-02T13:36:40;27.30;75.00
10678;DHT22;5387;48.722;9.110;2023-07-02T13:39:07;27.80;74.10
10678;DHT22;5387;48.722;9.110;2023-07-02T13:41:34;27.60;73.90
10678;DHT22;5387;48.722;9.110;2023-07-02T13:44:01;27.80;74.70
10678;DHT22;5387;48.722;9.110;2023-07-02T13:46:28;26.60;74.00
10678;DHT22;5387;48.722;9.110;2023-07-02T13:48:56;26.80;73.90
10678;DHT22;5387;48.722;9.110;2023-07-02T13:51:23;27.00;75.40
10678;DHT22;5387;48.722;9.110;2023-07-02T13:53:49;26.10;74.80
10678;DHT22;5387;48.722;9.110;2023-07-02T13:56:16;25.80;75.10
10678;DHT22;5387;48.722;9.110;2023-07-02T13:58:59;25.60;75.50
10678;DHT22;5387;48.722;9.110;2023-07-02T14:01:26;25.90;77.70
10678;DHT22;5387;48.722;9.110;2023-07-02T14:03:53;25.80;76.70
10678;DHT22;5387;48.722;9.110;2023-07-02T14:06:20;25.90;77.00
10678;DHT22;5387;48.722;9.110;2023-07-02T14:08:47;25.50;75.50
10678;DHT22;5387;48.722;9.110;2023-07-02T14:11:14;25.30;75.20
10678;DHT22;5387;48.722;9.110;2023-07-02T14:13:41;25.30;74.50
10678;DHT22;5387;48.722;9.110;2023-07-02T14:16:09;25.20;76.80
10678;DHT22;5387;48.722;9.110;2023-07-02T14:18:35;25.00;75.80
10678;DHT22;5387;48.722;9.110;2023-07-02T14:21:02;24.90;77.60
10678;DHT22;5387;48.722;9.110;2023-07-02T14:23:29;25.10;77.70
10678;DHT22;5387;48.722;9.110;2023-07-02T14:25:56;24.70;77.90
10678;DHT22;5387;48.722;9.110;2023-07-02T14:28:23;24.50;77.30
10678;DHT22;5387;48.722;9.110;2023-07-02T14:30:56;24.50;77.00
10678;DHT22;5387;48.722;9.110;2023-07-02T14:33:24;24.50;79.10
10678;DHT22;5387;48.722;9.110;2023-07-02T14:35:51;24.60;77.10
10678;DHT22;5387;48.722;9.110;2023-07-02T14:38:18;24.80;78.00
10678;DHT22;5387;48.722;9.110;2023-07-02T14:40:45;24.70;77.80
10678;DHT22;5387;48.722;9.110;2023-07-02T14:43:11;24.80;78.80
10678;DHT22;5387;48.722;9.110;2023-07-02T14:45:45;24.90;78.00
10678;DHT22;5387;48.722;9.110;2023-07-02T14:48:12;24.90;79.50
10678;DHT22;5387;48.722;9.110;2023-07-02T14:50:44;24.80;79.60
10678;DHT22;5387;48.722;9.110;2023-07-02T14:53:11;24.50;78.40
10678;DHT22;5387;48.722;9.110;2023-07-02T14:55:39;24.60;79.20
10678;DHT22;5387;48.722;9.110;2023-07-02T14:58:06;24.80;80.20
10678;DHT22;5387;48.722;9.110;2023-07-02T15:00:33;24.80;77.90
10678;DHT22;5387;48.722;9.110;2023-07-02T15:03:00;24.90;80.30
10678;DHT22;5387;48.722;9.110;2023-07-02T15:05:27;25.00;79.20
10678;DHT22;5387;48.722;9.110;2023-07-02T15:07:55;24.90;79.60
10678;DHT22;5387;48.722;9.110;2023-07-02T15:10:22;24.90;79.20
10678;DHT22;5387;48.722;9.110;2023-07-02T15:12:49;24.80;79.10
10678;DHT22;5387;48.722;9.110;2023-07-02T15:15:16;24.40;79.50
10678;DHT22;5387;48.722;9.110;2023-07-02T15:17:43;24.50;79.80
10678;DHT22;5387;48.722;9.110;2023-07-02T15:20:11;24.60;78.70
10678;DHT22;5387;48.722;9.110;2023-07-02T15:22:38;24.60;79.60
10678;DHT22;5387;48.722;9.110;2023-07-02T15:25:07;24.30;79.20
10678;DHT22;5387;48.722;9.110;2023-07-02T15:27:33;24.20;78.90
10678;DHT22;5387;48.722;9.110;2023-07-02T15:30:00;24.10;78.20
10678;DHT22;5387;48.722;9.110;2023-07-02T15:32:27;24.20;77.80
10678;DHT22;5387;48.722;9.110;2023-07-02T15:34:54;24.30;80.10
10678;DHT22;5387;48.722;9.110;2023-07-02T15:37:22;24.30;78.40
10678;DHT22;5387;48.722;9.110;2023-07-02T15:39:49;24.40;79.30
10678;DHT22;5387;48.722;9.110;2023-07-02T15:42:17;24.20;79.90
10678;DHT22;5387;48.722;9.110;2023-07-02T15:44:44;24.50;81.00
10678;DHT22;5387;48.722;9.110;2023-07-02T15:47:11;24.60;79.90